createdAt,value
2019-05-06T00:00:58.778Z,1003.30
2019-05-06T00:01:53.969Z,1003.27
2019-05-06T00:02:54.558Z,1003.26
2019-05-06T00:03:54.159Z,1003.26
2019-05-06T00:04:54.193Z,1003.27
2019-05-06T00:05:54.250Z,1003.25
2019-05-06T00:06:54.592Z,1003.22
2019-05-06T00:07:54.532Z,1003.23
2019-05-06T00:08:54.395Z,1003.24
2019-05-06T00:09:53.848Z,1003.20
2019-05-06T00:10:54.187Z,1003.21
2019-05-06T00:11:54.396Z,1003.21
2019-05-06T00:12:53.581Z,1003.24
2019-05-06T00:13:54.335Z,1003.21
2019-05-06T00:14:54.206Z,1003.21
2019-05-06T00:15:54.210Z,1003.27
2019-05-06T00:16:54.559Z,1003.25
2019-05-06T00:17:53.959Z,1003.28
2019-05-06T00:18:54.092Z,1003.29
2019-05-06T00:19:53.997Z,1003.30
2019-05-06T00:20:54.832Z,1003.26
2019-05-06T00:21:54.078Z,1003.29
2019-05-06T00:22:54.113Z,1003.26
2019-05-06T00:23:54.361Z,1003.28
2019-05-06T00:24:54.578Z,1003.26
2019-05-06T00:25:53.516Z,1003.27
2019-05-06T00:26:55.194Z,1003.30
2019-05-06T00:27:54.411Z,1003.31
2019-05-06T00:28:53.894Z,1003.30
2019-05-06T00:29:54.805Z,1003.31
2019-05-06T00:30:54.468Z,1003.33
2019-05-06T00:31:53.641Z,1003.32
2019-05-06T00:32:53.843Z,1003.34
2019-05-06T00:33:54.015Z,1003.33
2019-05-06T00:34:54.478Z,1003.35
2019-05-06T00:35:53.855Z,1003.35
2019-05-06T00:36:54.319Z,1003.36
2019-05-06T00:37:53.650Z,1003.34
2019-05-06T00:38:53.816Z,1003.31
2019-05-06T00:39:53.888Z,1003.29
2019-05-06T00:40:54.251Z,1003.31
2019-05-06T00:41:53.809Z,1003.28
2019-05-06T00:42:54.094Z,1003.31
2019-05-06T00:43:51.984Z,1003.31
2019-05-06T00:44:53.707Z,1003.30
2019-05-06T00:45:53.667Z,1003.32
2019-05-06T00:46:51.952Z,1003.30
2019-05-06T00:47:53.595Z,1003.28
2019-05-06T00:48:54.084Z,1003.29
2019-05-06T00:49:51.919Z,1003.29
2019-05-06T00:50:53.562Z,1003.24
2019-05-06T00:51:51.905Z,1003.26
2019-05-06T00:52:53.831Z,1003.28
2019-05-06T00:53:51.874Z,1003.26
2019-05-06T00:54:51.862Z,1003.29
2019-05-06T00:55:53.654Z,1003.28
2019-05-06T00:56:53.984Z,1003.25
2019-05-06T00:57:51.852Z,1003.21
2019-05-06T00:58:51.820Z,1003.28
2019-05-06T00:59:53.734Z,1003.26
2019-05-06T01:00:53.876Z,1003.26
2019-05-06T01:01:53.754Z,1003.28
2019-05-06T01:02:54.073Z,1003.27
2019-05-06T01:03:53.695Z,1003.24
2019-05-06T01:04:54.013Z,1003.22
2019-05-06T01:05:53.990Z,1003.22
2019-05-06T01:06:51.729Z,1003.23
2019-05-06T01:07:51.718Z,1003.23
2019-05-06T01:08:51.732Z,1003.26
2019-05-06T01:09:51.700Z,1003.31
2019-05-06T01:10:51.688Z,1003.25
2019-05-06T01:11:51.674Z,1003.26
2019-05-06T01:12:51.676Z,1003.26
2019-05-06T01:13:51.677Z,1003.26
2019-05-06T01:14:51.663Z,1003.28
2019-05-06T01:15:51.633Z,1003.24
2019-05-06T01:16:51.618Z,1003.28
2019-05-06T01:17:53.741Z,1003.28
2019-05-06T01:18:54.018Z,1003.27
2019-05-06T01:19:53.954Z,1003.31
2019-05-06T01:20:51.579Z,1003.26
2019-05-06T01:21:51.567Z,1003.28
2019-05-06T01:22:51.554Z,1003.26
2019-05-06T01:23:51.565Z,1003.27
2019-05-06T01:24:51.531Z,1003.24
2019-05-06T01:25:51.523Z,1003.25
2019-05-06T01:26:53.504Z,1003.22
2019-05-06T01:27:53.908Z,1003.22
2019-05-06T01:28:51.510Z,1003.27
2019-05-06T01:29:51.473Z,1003.24
2019-05-06T01:30:53.467Z,1003.22
2019-05-06T01:31:51.454Z,1003.20
2019-05-06T01:32:51.440Z,1003.25
2019-05-06T01:33:53.421Z,1003.25
2019-05-06T01:34:53.233Z,1003.19
2019-05-06T01:35:51.411Z,1003.22
2019-05-06T01:36:51.401Z,1003.21
2019-05-06T01:37:51.388Z,1003.24
2019-05-06T01:38:53.435Z,1003.20
2019-05-06T01:39:51.362Z,1003.21
2019-05-06T01:40:51.351Z,1003.23
2019-05-06T01:41:53.531Z,1003.26
2019-05-06T01:42:51.328Z,1003.26
2019-05-06T01:43:51.343Z,1003.26
2019-05-06T01:44:51.331Z,1003.25
2019-05-06T01:45:53.512Z,1003.28
2019-05-06T01:46:51.287Z,1003.26
2019-05-06T01:47:51.274Z,1003.27
2019-05-06T01:48:53.461Z,1003.29
2019-05-06T01:49:51.271Z,1003.28
2019-05-06T01:50:51.239Z,1003.27
2019-05-06T01:51:51.232Z,1003.27
2019-05-06T01:52:51.217Z,1003.29
2019-05-06T01:53:51.212Z,1003.27
2019-05-06T01:54:51.217Z,1003.28
2019-05-06T01:55:51.185Z,1003.28
2019-05-06T01:56:51.176Z,1003.31
2019-05-06T01:57:51.164Z,1003.30
2019-05-06T01:58:51.153Z,1003.28
2019-05-06T01:59:51.161Z,1003.24
2019-05-06T02:00:51.129Z,1003.28
2019-05-06T02:01:59.890Z,1003.26
2019-05-06T02:02:52.104Z,1003.27
2019-05-06T02:03:51.098Z,1003.27
2019-05-06T02:04:51.105Z,1003.26
2019-05-06T02:05:51.080Z,1003.29
2019-05-06T02:06:51.065Z,1003.28
2019-05-06T02:07:51.054Z,1003.29
2019-05-06T02:08:51.042Z,1003.28
2019-05-06T02:09:51.052Z,1003.30
2019-05-06T02:10:51.020Z,1003.33
2019-05-06T02:11:51.006Z,1003.37
2019-05-06T02:12:50.996Z,1003.34
2019-05-06T02:13:50.984Z,1003.35
2019-05-06T02:14:50.994Z,1003.32
2019-05-06T02:15:50.965Z,1003.28
2019-05-06T02:16:50.954Z,1003.25
2019-05-06T02:17:50.943Z,1003.26
2019-05-06T02:18:50.952Z,1003.28
2019-05-06T02:19:50.939Z,1003.31
2019-05-06T02:20:50.909Z,1003.28
2019-05-06T02:21:50.896Z,1003.30
2019-05-06T02:22:50.893Z,1003.29
2019-05-06T02:23:50.873Z,1003.32
2019-05-06T02:24:50.889Z,1003.30
2019-05-06T02:25:50.852Z,1003.34
2019-05-06T02:26:50.844Z,1003.31
2019-05-06T02:27:50.828Z,1003.32
2019-05-06T02:28:50.826Z,1003.32
2019-05-06T02:29:50.829Z,1003.31
2019-05-06T02:30:50.799Z,1003.31
2019-05-06T02:31:50.785Z,1003.30
2019-05-06T02:32:50.778Z,1003.34
2019-05-06T02:33:50.763Z,1003.31
2019-05-06T02:34:50.804Z,1003.33
2019-05-06T02:35:50.741Z,1003.33
2019-05-06T02:36:50.735Z,1003.30
2019-05-06T02:37:50.718Z,1003.30
2019-05-06T02:38:52.378Z,1003.32
2019-05-06T02:39:53.404Z,1003.31
2019-05-06T02:40:53.406Z,1003.28
2019-05-06T02:41:50.673Z,1003.25
2019-05-06T02:42:54.093Z,1003.24
2019-05-06T02:43:50.652Z,1003.25
2019-05-06T02:44:50.642Z,1003.22
2019-05-06T02:45:53.082Z,1003.27
2019-05-06T02:46:53.168Z,1003.24
2019-05-06T02:47:53.547Z,1003.24
2019-05-06T02:48:50.599Z,1003.20
2019-05-06T02:49:53.394Z,1003.22
2019-05-06T02:50:53.485Z,1003.26
2019-05-06T02:51:53.263Z,1003.25
2019-05-06T02:52:53.481Z,1003.22
2019-05-06T02:53:53.553Z,1003.25
2019-05-06T02:54:53.387Z,1003.24
2019-05-06T02:55:52.918Z,1003.28
2019-05-06T02:56:52.893Z,1003.28
2019-05-06T02:57:53.335Z,1003.27
2019-05-06T02:58:53.321Z,1003.28
2019-05-06T02:59:50.479Z,1003.29
2019-05-06T03:00:53.689Z,1003.26
2019-05-06T03:01:53.535Z,1003.30
2019-05-06T03:02:50.442Z,1003.29
2019-05-06T03:03:53.280Z,1003.30
2019-05-06T03:04:52.828Z,1003.29
2019-05-06T03:05:53.178Z,1003.29
2019-05-06T03:06:52.980Z,1003.29
2019-05-06T03:07:50.390Z,1003.23
2019-05-06T03:08:50.381Z,1003.25
2019-05-06T03:09:53.233Z,1003.31
2019-05-06T03:10:53.102Z,1003.27
2019-05-06T03:11:53.636Z,1003.26
2019-05-06T03:12:53.466Z,1003.25
2019-05-06T03:13:50.321Z,1003.24
2019-05-06T03:14:53.205Z,1003.28
2019-05-06T03:15:50.297Z,1003.25
2019-05-06T03:16:53.811Z,1003.25
2019-05-06T03:17:50.275Z,1003.21
2019-05-06T03:18:53.180Z,1003.23
2019-05-06T03:19:52.616Z,1003.24
2019-05-06T03:20:53.158Z,1003.23
2019-05-06T03:21:50.265Z,1003.24
2019-05-06T03:22:50.220Z,1003.26
2019-05-06T03:23:50.213Z,1003.18
2019-05-06T03:24:50.199Z,1003.19
2019-05-06T03:25:53.023Z,1003.21
2019-05-06T03:26:53.431Z,1003.20
2019-05-06T03:27:53.204Z,1003.18
2019-05-06T03:28:53.317Z,1003.17
2019-05-06T03:29:53.452Z,1003.15
2019-05-06T03:30:50.134Z,1003.17
2019-05-06T03:31:55.665Z,1003.16
2019-05-06T03:33:23.375Z,1003.24
2019-05-06T03:34:16.533Z,1003.22
2019-05-06T03:35:09.064Z,1003.17
2019-05-06T03:36:06.347Z,1003.20
2019-05-06T03:36:55.442Z,1003.19
2019-05-06T03:37:53.328Z,1003.22
2019-05-06T03:38:50.040Z,1003.28
2019-05-06T03:39:52.768Z,1003.20
2019-05-06T03:40:50.026Z,1003.22
2019-05-06T03:41:50.032Z,1003.22
2019-05-06T03:42:49.996Z,1003.18
2019-05-06T03:43:49.985Z,1003.22
2019-05-06T03:44:52.928Z,1003.22
2019-05-06T03:45:49.967Z,1003.20
2019-05-06T03:46:49.975Z,1003.20
2019-05-06T03:47:49.940Z,1003.21
2019-05-06T03:48:52.908Z,1003.24
2019-05-06T03:49:53.651Z,1003.24
2019-05-06T03:50:55.655Z,1003.23
2019-05-06T03:51:55.991Z,1003.25
2019-05-06T03:52:56.040Z,1003.24
2019-05-06T03:53:53.949Z,1003.25
2019-05-06T03:54:53.086Z,1003.28
2019-05-06T03:55:49.852Z,1003.26
2019-05-06T03:56:49.863Z,1003.25
2019-05-06T03:57:49.830Z,1003.26
2019-05-06T03:58:49.823Z,1003.22
2019-05-06T03:59:52.612Z,1003.18
2019-05-06T04:00:49.807Z,1003.24
2019-05-06T04:01:49.810Z,1003.19
2019-05-06T04:02:49.776Z,1003.22
2019-05-06T04:03:53.816Z,1003.23
2019-05-06T04:04:55.925Z,1003.20
2019-05-06T04:05:52.482Z,1003.25
2019-05-06T04:06:49.757Z,1003.21
2019-05-06T04:07:52.764Z,1003.22
2019-05-06T04:08:52.597Z,1003.25
2019-05-06T04:09:49.698Z,1003.24
2019-05-06T04:10:49.686Z,1003.24
2019-05-06T04:11:49.677Z,1003.24
2019-05-06T04:12:49.685Z,1003.23
2019-05-06T04:13:49.657Z,1003.27
2019-05-06T04:14:49.642Z,1003.26
2019-05-06T04:15:49.631Z,1003.25
2019-05-06T04:16:49.621Z,1003.22
2019-05-06T04:17:49.672Z,1003.25
2019-05-06T04:18:49.602Z,1003.28
2019-05-06T04:19:49.587Z,1003.28
2019-05-06T04:20:52.933Z,1003.23
2019-05-06T04:21:49.564Z,1003.30
2019-05-06T04:22:49.575Z,1003.29
2019-05-06T04:23:49.541Z,1003.31
2019-05-06T04:24:49.531Z,1003.28
2019-05-06T04:25:52.544Z,1003.27
2019-05-06T04:26:49.508Z,1003.29
2019-05-06T04:27:49.523Z,1003.29
2019-05-06T04:28:49.490Z,1003.26
2019-05-06T04:29:49.476Z,1003.32
2019-05-06T04:30:49.474Z,1003.31
2019-05-06T04:31:49.452Z,1003.32
2019-05-06T04:32:49.471Z,1003.30
2019-05-06T04:34:07.305Z,1003.28
2019-05-06T04:34:53.187Z,1003.26
2019-05-06T04:35:49.409Z,1003.25
2019-05-06T04:36:49.410Z,1003.26
2019-05-06T04:37:49.410Z,1003.24
2019-05-06T04:38:49.404Z,1003.21
2019-05-06T04:39:49.367Z,1003.25
2019-05-06T04:40:49.353Z,1003.30
2019-05-06T04:41:49.342Z,1003.27
2019-05-06T04:42:49.335Z,1003.34
2019-05-06T04:43:49.342Z,1003.31
2019-05-06T04:44:49.321Z,1003.32
2019-05-06T04:45:49.301Z,1003.33
2019-05-06T04:46:49.285Z,1003.38
2019-05-06T04:47:49.275Z,1003.34
2019-05-06T04:48:49.285Z,1003.34
2019-05-06T04:49:49.256Z,1003.33
2019-05-06T04:50:49.241Z,1003.32
2019-05-06T04:51:49.232Z,1003.34
2019-05-06T04:52:49.220Z,1003.31
2019-05-06T04:53:49.231Z,1003.36
2019-05-06T04:54:49.201Z,1003.35
2019-05-06T04:55:49.189Z,1003.32
2019-05-06T04:56:49.175Z,1003.28
2019-05-06T04:57:49.164Z,1003.32
2019-05-06T04:58:49.175Z,1003.34
2019-05-06T04:59:49.145Z,1003.29
2019-05-06T05:00:49.131Z,1003.36
2019-05-06T05:01:49.119Z,1003.34
2019-05-06T05:02:49.109Z,1003.39
2019-05-06T05:03:49.124Z,1003.38
2019-05-06T05:04:49.087Z,1003.37
2019-05-06T05:05:49.074Z,1003.35
2019-05-06T05:06:49.064Z,1003.35
2019-05-06T05:07:49.055Z,1003.39
2019-05-06T05:08:49.064Z,1003.37
2019-05-06T05:09:49.040Z,1003.30
2019-05-06T05:10:49.022Z,1003.35
2019-05-06T05:11:49.010Z,1003.34
2019-05-06T05:12:48.999Z,1003.30
2019-05-06T05:13:49.011Z,1003.32
2019-05-06T05:14:48.980Z,1003.34
2019-05-06T05:15:48.969Z,1003.30
2019-05-06T05:16:48.958Z,1003.31
2019-05-06T05:17:48.943Z,1003.36
2019-05-06T05:18:48.954Z,1003.38
2019-05-06T05:19:48.920Z,1003.40
2019-05-06T05:20:48.910Z,1003.39
2019-05-06T05:21:48.898Z,1003.44
2019-05-06T05:22:48.887Z,1003.55
2019-05-06T05:23:48.896Z,1003.61
2019-05-06T05:24:48.865Z,1003.64
2019-05-06T05:25:48.854Z,1003.68
2019-05-06T05:26:48.902Z,1003.70
2019-05-06T05:27:48.839Z,1003.70
2019-05-06T05:28:48.843Z,1003.71
2019-05-06T05:29:48.813Z,1003.72
2019-05-06T05:30:48.798Z,1003.63
2019-05-06T05:31:48.789Z,1003.65
2019-05-06T05:32:48.776Z,1003.65
2019-05-06T05:33:48.785Z,1003.68
2019-05-06T05:34:48.757Z,1003.69
2019-05-06T05:35:48.743Z,1003.75
2019-05-06T05:36:48.732Z,1003.80
2019-05-06T05:37:48.721Z,1003.80
2019-05-06T05:38:48.734Z,1003.80
2019-05-06T05:39:48.698Z,1003.82
2019-05-06T05:40:48.691Z,1003.83
2019-05-06T05:41:48.679Z,1003.79
2019-05-06T05:42:48.668Z,1003.79
2019-05-06T05:43:48.691Z,1003.76
2019-05-06T05:44:48.642Z,1003.73
2019-05-06T05:45:48.631Z,1003.70
2019-05-06T05:46:48.624Z,1003.70
2019-05-06T05:47:48.609Z,1003.71
2019-05-06T05:48:48.613Z,1003.74
2019-05-06T05:49:48.610Z,1003.73
2019-05-06T05:50:48.576Z,1003.75
2019-05-06T05:51:48.570Z,1003.71
2019-05-06T05:52:48.561Z,1003.72
2019-05-06T05:53:48.544Z,1003.73
2019-05-06T05:54:48.555Z,1003.75
2019-05-06T05:55:48.524Z,1003.72
2019-05-06T05:56:48.509Z,1003.73
2019-05-06T05:57:48.498Z,1003.74
2019-05-06T05:58:48.486Z,1003.77
2019-05-06T05:59:48.496Z,1003.80
2019-05-06T06:00:48.465Z,1003.74
2019-05-06T06:01:48.457Z,1003.70
2019-05-06T06:02:48.442Z,1003.71
2019-05-06T06:03:48.432Z,1003.72
2019-05-06T06:04:54.703Z,1003.75
2019-05-06T06:05:49.407Z,1003.71
2019-05-06T06:06:48.397Z,1003.70
2019-05-06T06:07:48.396Z,1003.72
2019-05-06T06:08:48.745Z,1003.71
2019-05-06T06:09:48.482Z,1003.72
2019-05-06T06:10:48.786Z,1003.71
2019-05-06T06:11:48.586Z,1003.71
2019-05-06T06:12:48.545Z,1003.73
2019-05-06T06:13:48.723Z,1003.72
2019-05-06T06:14:49.466Z,1003.72
2019-05-06T06:15:48.476Z,1003.73
2019-05-06T06:16:48.632Z,1003.81
2019-05-06T06:17:49.429Z,1003.78
2019-05-06T06:18:48.264Z,1003.77
2019-05-06T06:19:48.275Z,1003.83
2019-05-06T06:20:48.389Z,1003.79
2019-05-06T06:21:48.341Z,1003.77
2019-05-06T06:22:48.688Z,1003.79
2019-05-06T06:23:48.478Z,1003.77
2019-05-06T06:24:48.280Z,1003.78
2019-05-06T06:25:48.187Z,1003.78
2019-05-06T06:26:48.177Z,1003.78
2019-05-06T06:27:48.425Z,1003.73
2019-05-06T06:28:48.157Z,1003.77
2019-05-06T06:29:48.500Z,1003.73
2019-05-06T06:30:48.135Z,1003.77
2019-05-06T06:31:49.571Z,1003.74
2019-05-06T06:32:48.353Z,1003.74
2019-05-06T06:33:48.129Z,1003.65
2019-05-06T06:34:48.420Z,1003.62
2019-05-06T06:35:48.849Z,1003.60
2019-05-06T06:36:48.554Z,1003.62
2019-05-06T06:37:48.054Z,1003.65
2019-05-06T06:38:48.043Z,1003.62
2019-05-06T06:39:48.048Z,1003.59
2019-05-06T06:40:48.044Z,1003.60
2019-05-06T06:41:48.008Z,1003.61
2019-05-06T06:42:48.003Z,1003.69
2019-05-06T06:43:47.990Z,1003.69
2019-05-06T06:44:47.975Z,1003.77
2019-05-06T06:45:47.991Z,1003.75
2019-05-06T06:46:47.966Z,1003.75
2019-05-06T06:47:47.942Z,1003.74
2019-05-06T06:48:47.932Z,1003.76
2019-05-06T06:49:47.926Z,1003.75
2019-05-06T06:50:47.931Z,1003.72
2019-05-06T06:51:47.910Z,1003.78
2019-05-06T06:52:47.887Z,1003.71
2019-05-06T06:53:47.876Z,1003.68
2019-05-06T06:54:47.867Z,1003.71
2019-05-06T06:55:47.877Z,1003.71
2019-05-06T06:56:47.848Z,1003.64
2019-05-06T06:57:47.834Z,1003.65
2019-05-06T06:58:47.820Z,1003.63
2019-05-06T06:59:47.812Z,1003.69
2019-05-06T07:00:47.823Z,1003.68
2019-05-06T07:01:47.790Z,1003.65
2019-05-06T07:02:47.776Z,1003.67
2019-05-06T07:03:47.765Z,1003.66
2019-05-06T07:04:47.760Z,1003.67
2019-05-06T07:05:47.774Z,1003.68
2019-05-06T07:06:47.755Z,1003.67
2019-05-06T07:07:48.090Z,1003.65
2019-05-06T07:08:47.710Z,1003.60
2019-05-06T07:09:47.700Z,1003.65
2019-05-06T07:10:47.709Z,1003.66
2019-05-06T07:11:47.676Z,1003.65
2019-05-06T07:12:47.693Z,1003.70
2019-05-06T07:13:47.657Z,1003.69
2019-05-06T07:14:47.649Z,1003.66
2019-05-06T07:15:47.655Z,1003.69
2019-05-06T07:16:47.622Z,1003.67
2019-05-06T07:17:47.611Z,1003.67
2019-05-06T07:18:47.600Z,1003.66
2019-05-06T07:19:47.590Z,1003.70
2019-05-06T07:20:47.612Z,1003.66
2019-05-06T07:21:47.572Z,1003.67
2019-05-06T07:22:47.557Z,1003.67
2019-05-06T07:23:47.550Z,1003.66
2019-05-06T07:24:47.533Z,1003.68
2019-05-06T07:25:47.564Z,1003.68
2019-05-06T07:26:47.527Z,1003.67
2019-05-06T07:27:47.659Z,1003.69
2019-05-06T07:28:47.489Z,1003.65
2019-05-06T07:29:48.595Z,1003.70
2019-05-06T07:30:47.469Z,1003.64
2019-05-06T07:31:47.481Z,1003.67
2019-05-06T07:32:47.445Z,1003.68
2019-05-06T07:33:47.433Z,1003.69
2019-05-06T07:34:47.426Z,1003.71
2019-05-06T07:35:47.411Z,1003.67
2019-05-06T07:36:47.420Z,1003.69
2019-05-06T07:37:47.393Z,1003.68
2019-05-06T07:38:47.381Z,1003.69
2019-05-06T07:39:47.366Z,1003.66
2019-05-06T07:40:47.356Z,1003.69
2019-05-06T07:41:47.387Z,1003.70
2019-05-06T07:42:47.346Z,1003.72
2019-05-06T07:43:47.329Z,1003.70
2019-05-06T07:44:47.316Z,1003.74
2019-05-06T07:45:47.336Z,1003.76
2019-05-06T07:46:47.314Z,1003.72
2019-05-06T07:47:47.281Z,1003.77
2019-05-06T07:48:47.270Z,1003.81
2019-05-06T07:49:47.257Z,1003.78
2019-05-06T07:50:49.242Z,1003.79
2019-05-06T07:51:47.255Z,1003.77
2019-05-06T07:52:47.250Z,1003.75
2019-05-06T07:53:47.212Z,1003.75
2019-05-06T07:54:47.203Z,1003.79
2019-05-06T07:55:47.193Z,1003.79
2019-05-06T07:56:47.201Z,1003.79
2019-05-06T07:57:49.660Z,1003.79
2019-05-06T07:58:47.156Z,1003.75
2019-05-06T07:59:47.147Z,1003.74
2019-05-06T08:00:47.150Z,1003.74
2019-05-06T08:01:47.145Z,1003.78
2019-05-06T08:02:47.115Z,1003.79
2019-05-06T08:03:47.100Z,1003.80
2019-05-06T08:04:47.089Z,1003.81
2019-05-06T08:05:57.960Z,1003.81
2019-05-06T08:06:48.104Z,1003.80
2019-05-06T08:07:47.244Z,1003.82
2019-05-06T08:08:47.050Z,1003.80
2019-05-06T08:09:47.034Z,1003.81
2019-05-06T08:10:47.031Z,1003.82
2019-05-06T08:11:47.014Z,1003.85
2019-05-06T08:12:47.027Z,1003.82
2019-05-06T08:13:46.993Z,1003.84
2019-05-06T08:14:46.981Z,1003.81
2019-05-06T08:15:46.967Z,1003.84
2019-05-06T08:16:46.958Z,1003.87
2019-05-06T08:17:46.967Z,1003.83
2019-05-06T08:18:46.944Z,1003.88
2019-05-06T08:19:46.930Z,1003.92
2019-05-06T08:20:46.914Z,1003.87
2019-05-06T08:21:46.912Z,1003.82
2019-05-06T08:22:46.911Z,1003.83
2019-05-06T08:23:46.884Z,1003.88
2019-05-06T08:24:46.875Z,1003.86
2019-05-06T08:25:46.860Z,1003.88
2019-05-06T08:26:46.849Z,1003.84
2019-05-06T08:27:49.388Z,1003.82
2019-05-06T08:28:46.832Z,1003.85
2019-05-06T08:29:46.814Z,1003.87
2019-05-06T08:30:46.811Z,1003.91
2019-05-06T08:31:46.814Z,1003.92
2019-05-06T08:32:46.784Z,1003.94
2019-05-06T08:33:46.794Z,1003.97
2019-05-06T08:34:46.763Z,1003.92
2019-05-06T08:35:46.746Z,1003.90
2019-05-06T08:36:46.738Z,1003.90
2019-05-06T08:37:46.726Z,1003.90
2019-05-06T08:38:46.736Z,1003.86
2019-05-06T08:39:46.706Z,1003.87
2019-05-06T08:40:46.691Z,1003.82
2019-05-06T08:41:46.683Z,1003.84
2019-05-06T08:42:46.673Z,1003.75
2019-05-06T08:43:46.707Z,1003.79
2019-05-06T08:44:46.647Z,1003.79
2019-05-06T08:45:46.649Z,1003.76
2019-05-06T08:46:46.697Z,1003.76
2019-05-06T08:47:46.615Z,1003.79
2019-05-06T08:48:46.607Z,1003.78
2019-05-06T08:49:49.318Z,1003.69
2019-05-06T08:50:46.587Z,1003.75
2019-05-06T08:51:46.572Z,1003.70
2019-05-06T08:52:46.565Z,1003.73
2019-05-06T08:53:46.551Z,1003.75
2019-05-06T08:54:46.561Z,1003.74
2019-05-06T08:55:46.529Z,1003.73
2019-05-06T08:56:46.515Z,1003.71
2019-05-06T08:57:46.512Z,1003.76
2019-05-06T08:58:46.499Z,1003.76
2019-05-06T08:59:46.505Z,1003.79
2019-05-06T09:00:46.473Z,1003.83
2019-05-06T09:01:46.467Z,1003.80
2019-05-06T09:02:46.455Z,1003.82
2019-05-06T09:03:46.439Z,1003.83
2019-05-06T09:04:46.449Z,1003.85
2019-05-06T09:05:46.421Z,1003.83
2019-05-06T09:06:46.405Z,1003.82
2019-05-06T09:07:46.399Z,1003.81
2019-05-06T09:08:46.386Z,1003.82
2019-05-06T09:09:46.392Z,1003.79
2019-05-06T09:10:46.363Z,1003.80
2019-05-06T09:11:46.351Z,1003.74
2019-05-06T09:12:46.422Z,1003.79
2019-05-06T09:13:46.329Z,1003.76
2019-05-06T09:14:46.336Z,1003.77
2019-05-06T09:15:46.312Z,1003.79
2019-05-06T09:16:46.311Z,1003.79
2019-05-06T09:17:46.284Z,1003.76
2019-05-06T09:18:46.276Z,1003.78
2019-05-06T09:19:46.283Z,1003.74
2019-05-06T09:20:46.259Z,1003.74
2019-05-06T09:21:46.585Z,1003.72
2019-05-06T09:22:46.226Z,1003.74
2019-05-06T09:23:46.219Z,1003.73
2019-05-06T09:24:46.235Z,1003.72
2019-05-06T09:25:46.199Z,1003.78
2019-05-06T09:26:46.182Z,1003.75
2019-05-06T09:27:46.174Z,1003.68
2019-05-06T09:28:46.162Z,1003.67
2019-05-06T09:29:46.228Z,1003.71
2019-05-06T09:30:46.153Z,1003.67
2019-05-06T09:31:46.129Z,1003.70
2019-05-06T09:32:46.161Z,1003.66
2019-05-06T09:33:46.110Z,1003.69
2019-05-06T09:34:46.121Z,1003.68
2019-05-06T09:35:46.086Z,1003.64
2019-05-06T09:36:52.014Z,1003.60
2019-05-06T09:37:47.060Z,1003.64
2019-05-06T09:38:46.062Z,1003.66
2019-05-06T09:39:46.063Z,1003.63
2019-05-06T09:40:46.029Z,1003.58
2019-05-06T09:41:48.165Z,1003.55
2019-05-06T09:42:46.005Z,1003.61
2019-05-06T09:43:45.995Z,1003.54
2019-05-06T09:44:46.004Z,1003.56
2019-05-06T09:45:45.993Z,1003.54
2019-05-06T09:46:46.017Z,1003.52
2019-05-06T09:47:45.948Z,1003.56
2019-05-06T09:48:45.939Z,1003.50
2019-05-06T09:49:45.931Z,1003.52
2019-05-06T09:50:46.693Z,1003.52
2019-05-06T09:51:45.905Z,1003.51
2019-05-06T09:52:45.895Z,1003.51
2019-05-06T09:53:45.884Z,1003.59
2019-05-06T09:54:45.879Z,1003.61
2019-05-06T09:55:45.884Z,1003.57
2019-05-06T09:56:45.849Z,1003.55
2019-05-06T09:57:45.838Z,1003.54
2019-05-06T09:58:45.827Z,1003.55
2019-05-06T09:59:45.816Z,1003.49
2019-05-06T10:00:45.830Z,1003.56
2019-05-06T10:01:45.798Z,1003.57
2019-05-06T10:02:49.312Z,1003.56
2019-05-06T10:03:45.771Z,1003.57
2019-05-06T10:04:45.761Z,1003.55
2019-05-06T10:05:45.772Z,1003.51
2019-05-06T10:06:56.276Z,1003.52
2019-05-06T10:07:46.730Z,1003.53
2019-05-06T10:08:45.721Z,1003.50
2019-05-06T10:09:45.720Z,1003.51
2019-05-06T10:10:55.917Z,1003.52
2019-05-06T10:11:46.685Z,1003.52
2019-05-06T10:12:45.686Z,1003.45
2019-05-06T10:13:45.661Z,1003.45
2019-05-06T10:14:45.652Z,1003.47
2019-05-06T10:15:45.666Z,1003.46
2019-05-06T10:16:45.637Z,1003.49
2019-05-06T10:17:45.654Z,1003.50
2019-05-06T10:18:45.612Z,1003.45
2019-05-06T10:19:45.623Z,1003.51
2019-05-06T10:20:45.609Z,1003.46
2019-05-06T10:21:45.578Z,1003.49
2019-05-06T10:22:45.584Z,1003.49
2019-05-06T10:23:45.550Z,1003.46
2019-05-06T10:24:45.544Z,1003.51
2019-05-06T10:25:45.575Z,1003.47
2019-05-06T10:26:45.521Z,1003.46
2019-05-06T10:27:45.512Z,1003.47
2019-05-06T10:28:45.502Z,1003.47
2019-05-06T10:29:45.484Z,1003.47
2019-05-06T10:30:45.513Z,1003.43
2019-05-06T10:31:45.471Z,1003.40
2019-05-06T10:32:45.453Z,1003.46
2019-05-06T10:33:45.444Z,1003.44
2019-05-06T10:34:45.437Z,1003.42
2019-05-06T10:35:45.422Z,1003.44
2019-05-06T10:36:45.432Z,1003.48
2019-05-06T10:37:45.398Z,1003.45
2019-05-06T10:38:45.387Z,1003.42
2019-05-06T10:39:45.375Z,1003.43
2019-05-06T10:40:59.522Z,1003.39
2019-05-06T10:41:46.372Z,1003.41
2019-05-06T10:42:45.342Z,1003.40
2019-05-06T10:43:45.368Z,1003.41
2019-05-06T10:44:45.320Z,1003.36
2019-05-06T10:45:45.308Z,1003.33
2019-05-06T10:46:45.321Z,1003.34
2019-05-06T10:47:45.285Z,1003.36
2019-05-06T10:48:45.280Z,1003.35
2019-05-06T10:49:45.275Z,1003.36
2019-05-06T10:50:45.252Z,1003.33
2019-05-06T10:51:45.265Z,1003.31
2019-05-06T10:52:45.233Z,1003.32
2019-05-06T10:53:45.219Z,1003.31
2019-05-06T10:54:45.211Z,1003.29
2019-05-06T10:55:45.201Z,1003.31
2019-05-06T10:56:53.150Z,1003.33
2019-05-06T10:57:46.177Z,1003.32
2019-05-06T10:58:45.165Z,1003.31
2019-05-06T10:59:45.154Z,1003.26
2019-05-06T11:00:45.293Z,1003.25
2019-05-06T11:01:45.161Z,1003.26
2019-05-06T11:02:45.120Z,1003.24
2019-05-06T11:03:45.112Z,1003.21
2019-05-06T11:04:45.104Z,1003.21
2019-05-06T11:05:45.115Z,1003.17
2019-05-06T11:06:45.084Z,1003.19
2019-05-06T11:07:45.094Z,1003.18
2019-05-06T11:08:45.053Z,1003.16
2019-05-06T11:09:45.045Z,1003.17
2019-05-06T11:10:45.720Z,1003.15
2019-05-06T11:11:45.025Z,1003.14
2019-05-06T11:12:45.031Z,1003.17
2019-05-06T11:13:45.000Z,1003.21
2019-05-06T11:14:44.989Z,1003.21
2019-05-06T11:15:44.982Z,1003.20
2019-05-06T11:16:45.509Z,1003.17
2019-05-06T11:17:44.974Z,1003.17
2019-05-06T11:18:44.946Z,1003.14
2019-05-06T11:19:44.931Z,1003.20
2019-05-06T11:20:44.920Z,1003.13
2019-05-06T11:21:45.343Z,1003.12
2019-05-06T11:22:44.921Z,1003.13
2019-05-06T11:23:44.886Z,1003.12
2019-05-06T11:24:44.875Z,1003.11
2019-05-06T11:25:44.869Z,1003.13
2019-05-06T11:26:44.854Z,1003.14
2019-05-06T11:27:45.408Z,1003.10
2019-05-06T11:28:44.831Z,1003.15
2019-05-06T11:29:44.821Z,1003.13
2019-05-06T11:30:44.808Z,1003.10
2019-05-06T11:31:44.807Z,1003.09
2019-05-06T11:32:44.817Z,1003.10
2019-05-06T11:33:44.774Z,1003.11
2019-05-06T11:34:44.768Z,1003.09
2019-05-06T11:35:44.755Z,1003.12
2019-05-06T11:36:44.742Z,1003.03
2019-05-06T11:37:50.121Z,1003.12
2019-05-06T11:38:48.353Z,1003.09
2019-05-06T11:39:44.708Z,1003.08
2019-05-06T11:40:44.696Z,1003.07
2019-05-06T11:42:01.617Z,1003.09
2019-05-06T11:42:45.714Z,1003.08
2019-05-06T11:43:44.665Z,1003.02
2019-05-06T11:44:44.658Z,1003.03
2019-05-06T11:45:44.643Z,1003.04
2019-05-06T11:46:44.636Z,1003.02
2019-05-06T11:47:44.625Z,1003.03
2019-05-06T11:48:44.631Z,1003.04
2019-05-06T11:49:44.602Z,1003.01
2019-05-06T11:50:44.588Z,1003.02
2019-05-06T11:51:44.577Z,1003.01
2019-05-06T11:52:44.564Z,1003.05
2019-05-06T11:53:44.590Z,1003.03
2019-05-06T11:54:44.544Z,1002.99
2019-05-06T11:55:44.534Z,1002.97
2019-05-06T11:56:50.664Z,1003.00
2019-05-06T11:57:45.509Z,1002.99
2019-05-06T11:58:44.521Z,1003.01
2019-05-06T11:59:44.486Z,1002.99
2019-05-06T12:00:44.609Z,1003.01
2019-05-06T12:01:44.463Z,1002.96
2019-05-06T12:02:48.383Z,1003.01
2019-05-06T12:03:44.491Z,1003.02
2019-05-06T12:04:44.434Z,1003.03
2019-05-06T12:05:44.418Z,1003.02